createdAt,value
2022-09-20T00:01:33.542Z,100664.91
2022-09-20T00:04:05.305Z,100668.53
2022-09-20T00:06:34.186Z,100664.91
2022-09-20T00:09:03.206Z,100665.16
2022-09-20T00:11:32.777Z,100675.97
2022-09-20T00:14:02.446Z,100668.66
2022-09-20T00:16:35.508Z,100665.88
2022-09-20T00:19:04.330Z,100658.88
2022-09-20T00:21:35.256Z,100649.19
2022-09-20T00:24:03.685Z,100651.00
2022-09-20T00:26:31.481Z,100645.03
2022-09-20T00:28:59.329Z,100639.09
2022-09-20T00:31:27.098Z,100633.91
2022-09-20T00:34:14.895Z,100639.09
2022-09-20T00:36:43.035Z,100627.69
2022-09-20T00:39:15.362Z,100625.38
2022-09-20T00:41:43.804Z,100628.78
2022-09-20T00:44:45.548Z,100616.63
2022-09-20T00:47:36.879Z,100614.84
2022-09-20T00:50:24.464Z,100615.72
2022-09-20T00:53:00.542Z,100602.41
2022-09-20T00:55:29.168Z,100600.19
2022-09-20T00:57:58.589Z,100595.59
2022-09-20T01:00:27.661Z,100594.63
2022-09-20T01:03:00.671Z,100599.00
2022-09-20T01:05:28.710Z,100598.25
2022-09-20T01:07:57.640Z,100601.88
2022-09-20T01:10:26.304Z,100602.00
2022-09-20T01:12:54.476Z,100596.44
2022-09-20T01:15:24.026Z,100597.19
2022-09-20T01:17:53.990Z,100599.22
2022-09-20T01:20:27.040Z,100609.13
2022-09-20T01:23:03.551Z,100610.28
2022-09-20T01:25:48.446Z,100593.78
2022-09-20T01:28:16.830Z,100590.63
2022-09-20T01:31:00.577Z,100590.63
2022-09-20T01:33:58.542Z,100587.09
2022-09-20T01:36:38.625Z,100583.81
2022-09-20T01:39:25.477Z,100583.09
2022-09-20T01:42:05.130Z,100586.59
2022-09-20T01:44:38.677Z,100580.75
2022-09-20T01:47:35.789Z,100579.66
2022-09-20T01:50:27.081Z,100578.19
2022-09-20T01:52:57.310Z,100582.66
2022-09-20T01:56:02.395Z,100585.41
2022-09-20T01:59:22.576Z,100588.59
2022-09-20T02:02:03.961Z,100582.44
2022-09-20T02:04:49.937Z,100585.84
2022-09-20T02:07:49.303Z,100582.66
2022-09-20T02:10:28.519Z,100586.47
2022-09-20T02:13:07.330Z,100579.03
2022-09-20T02:16:08.850Z,100572.34
2022-09-20T02:19:01.196Z,100581.16
2022-09-20T02:21:43.078Z,100584.34
2022-09-20T02:24:38.079Z,100583.28
2022-09-20T02:27:11.617Z,100578.94
2022-09-20T02:29:54.787Z,100579.78
2022-09-20T02:32:30.935Z,100577.13
2022-09-20T02:35:19.996Z,100572.88
2022-09-20T02:38:06.201Z,100575.44
2022-09-20T02:41:11.867Z,100570.53
2022-09-20T02:43:54.621Z,100568.72
2022-09-20T02:46:44.230Z,100581.16
2022-09-20T02:49:25.457Z,100577.22
2022-09-20T02:52:00.818Z,100581.78
2022-09-20T02:54:43.410Z,100587.50
2022-09-20T02:57:13.570Z,100593.06
2022-09-20T02:59:52.514Z,100588.91
2022-09-20T03:02:53.918Z,100583.94
2022-09-20T03:05:43.344Z,100578.38
2022-09-20T03:08:41.637Z,100586.34
2022-09-20T03:11:35.116Z,100586.88
2022-09-20T03:14:17.929Z,100577.31
2022-09-20T03:16:52.574Z,100581.16
2022-09-20T03:19:48.470Z,100571.81
2022-09-20T03:22:53.894Z,100579.34
2022-09-20T03:25:58.688Z,100580.50
2022-09-20T03:29:00.670Z,100578.81
2022-09-20T03:31:40.636Z,100575.41
2022-09-20T03:34:32.907Z,100587.97
2022-09-20T03:37:26.752Z,100577.44
2022-09-20T03:40:15.757Z,100574.88
2022-09-20T03:42:54.277Z,100574.16
2022-09-20T03:45:40.394Z,100578.81
2022-09-20T03:48:41.368Z,100588.91
2022-09-20T03:51:14.586Z,100590.53
2022-09-20T03:54:04.037Z,100597.94
2022-09-20T03:57:06.460Z,100582.19
2022-09-20T03:59:54.296Z,100588.16
2022-09-20T04:02:46.090Z,100582.19
2022-09-20T04:05:19.314Z,100589.66
2022-09-20T04:08:33.336Z,100590.81
2022-09-20T04:11:30.279Z,100583.72
2022-09-20T04:14:16.430Z,100596.03
2022-09-20T04:17:11.716Z,100595.53
2022-09-20T04:19:54.124Z,100597.22
2022-09-20T04:22:25.340Z,100599.66
2022-09-20T04:25:04.977Z,100606.59
2022-09-20T04:27:54.105Z,100593.06
2022-09-20T04:30:32.067Z,100605.81
2022-09-20T04:33:08.912Z,100608.06
2022-09-20T04:36:07.018Z,100604.00
2022-09-20T04:38:35.837Z,100605.69
2022-09-20T04:41:35.877Z,100611.25
2022-09-20T04:44:27.863Z,100622.91
2022-09-20T04:47:12.009Z,100615.56
2022-09-20T04:50:20.864Z,100637.75
2022-09-20T04:53:14.747Z,100651.97
2022-09-20T04:56:14.838Z,100649.66
2022-09-20T04:59:06.691Z,100655.47
2022-09-20T05:01:36.465Z,100661.63
2022-09-20T05:04:28.587Z,100651.75
2022-09-20T05:07:33.462Z,100662.72
2022-09-20T05:10:35.012Z,100671.78
2022-09-20T05:13:27.774Z,100682.78
2022-09-20T05:16:04.450Z,100673.50
2022-09-20T05:18:43.266Z,100663.47
2022-09-20T05:21:42.260Z,100667.06
2022-09-20T05:24:28.651Z,100677.09
2022-09-20T05:27:22.719Z,100682.03
2022-09-20T05:30:16.593Z,100662.53
2022-09-20T05:33:10.617Z,100666.44
2022-09-20T05:35:59.257Z,100661.63
2022-09-20T05:39:03.505Z,100670.97
2022-09-20T05:42:03.239Z,100660.47
2022-09-20T05:45:00.338Z,100665.38
2022-09-20T05:48:16.004Z,100675.13
2022-09-20T05:51:05.172Z,100673.16
2022-09-20T05:53:51.501Z,100670.94
2022-09-20T05:56:28.037Z,100676.13
2022-09-20T05:59:14.094Z,100674.06
2022-09-20T06:01:51.102Z,100680.75
2022-09-20T06:04:53.135Z,100671.00
2022-09-20T06:07:32.714Z,100660.59
2022-09-20T06:10:17.121Z,100660.16
2022-09-20T06:12:54.274Z,100662.16
2022-09-20T06:15:56.338Z,100685.38
2022-09-20T06:18:33.410Z,100684.25
2022-09-20T06:21:25.150Z,100686.22
2022-09-20T06:24:04.371Z,100693.81
2022-09-20T06:26:37.020Z,100690.56
2022-09-20T06:29:11.712Z,100699.09
2022-09-20T06:31:39.382Z,100681.50
2022-09-20T06:34:10.642Z,100683.78
2022-09-20T06:37:04.491Z,100676.72
2022-09-20T06:40:10.616Z,100679.94
2022-09-20T06:42:38.647Z,100672.34
2022-09-20T06:45:06.638Z,100671.56
2022-09-20T06:47:38.120Z,100676.25
2022-09-20T06:50:07.184Z,100678.59
2022-09-20T06:52:35.750Z,100671.19
2022-09-20T06:55:07.482Z,100678.41
2022-09-20T06:57:38.096Z,100679.53
2022-09-20T07:00:10.154Z,100680.28
2022-09-20T07:02:37.916Z,100676.88
2022-09-20T07:05:07.559Z,100683.72
2022-09-20T07:07:35.292Z,100676.88
2022-09-20T07:10:02.884Z,100671.41
2022-09-20T07:12:32.223Z,100664.91
2022-09-20T07:15:00.311Z,100656.84
2022-09-20T07:17:27.875Z,100652.38
2022-09-20T07:19:57.198Z,100647.25
2022-09-20T07:22:24.727Z,100639.47
2022-09-20T07:24:52.886Z,100636.50
2022-09-20T07:27:21.371Z,100633.31
2022-09-20T07:29:48.984Z,100626.19
2022-09-20T07:32:18.042Z,100613.94
2022-09-20T07:34:45.969Z,100606.09
2022-09-20T07:37:14.094Z,100607.53
2022-09-20T07:39:42.108Z,100612.13
2022-09-20T07:42:09.675Z,100611.28
2022-09-20T07:44:37.247Z,100599.50
2022-09-20T07:47:06.442Z,100601.53
2022-09-20T07:49:34.515Z,100597.72
2022-09-20T07:52:02.774Z,100590.75
2022-09-20T07:54:30.502Z,100579.66
2022-09-20T07:56:58.070Z,100581.28
2022-09-20T07:59:26.080Z,100578.97
2022-09-20T08:01:53.886Z,100569.59
2022-09-20T08:04:21.466Z,100566.94
2022-09-20T08:06:49.014Z,100563.84
2022-09-20T08:09:16.784Z,100558.44
2022-09-20T08:11:44.278Z,100559.63
2022-09-20T08:14:17.018Z,100551.84
2022-09-20T08:16:47.974Z,100546.38
2022-09-20T08:19:21.201Z,100537.66
2022-09-20T08:21:50.671Z,100526.72
2022-09-20T08:24:19.036Z,100526.28
2022-09-20T08:26:46.734Z,100525.03
2022-09-20T08:29:15.565Z,100523.28
2022-09-20T08:31:43.948Z,100526.31
2022-09-20T08:34:14.994Z,100504.06
2022-09-20T08:36:47.833Z,100510.97
2022-09-20T08:42:14.840Z,100507.88
2022-09-20T08:45:11.370Z,100506.59
2022-09-20T08:47:58.862Z,100498.94
2022-09-20T08:50:28.184Z,100500.28
2022-09-20T08:53:00.654Z,100506.06
2022-09-20T08:55:39.920Z,100500.81
2022-09-20T08:58:13.641Z,100498.78
2022-09-20T09:00:45.083Z,100495.88
2022-09-20T09:03:17.163Z,100493.94
2022-09-20T09:05:49.311Z,100498.56
2022-09-20T09:08:28.338Z,100481.22
2022-09-20T09:11:18.776Z,100483.41
2022-09-20T09:13:57.293Z,100483.25
2022-09-20T09:16:34.743Z,100488.59
2022-09-20T09:19:33.340Z,100473.84
2022-09-20T09:22:03.907Z,100472.47
2022-09-20T09:24:31.922Z,100471.03
2022-09-20T09:27:17.143Z,100469.97
2022-09-20T09:29:54.506Z,100472.97
2022-09-20T09:32:31.154Z,100471.41
2022-09-20T09:35:30.673Z,100469.34
2022-09-20T09:38:01.225Z,100466.97
2022-09-20T09:40:31.822Z,100477.22
2022-09-20T09:43:01.914Z,100473.44
2022-09-20T09:45:36.385Z,100463.06
2022-09-20T09:48:22.954Z,100466.00
2022-09-20T09:50:50.949Z,100464.38
2022-09-20T09:53:22.855Z,100462.88
2022-09-20T09:56:23.103Z,100455.78
2022-09-20T09:59:12.574Z,100443.75
2022-09-20T10:02:04.502Z,100438.34
2022-09-20T10:04:57.587Z,100435.63
2022-09-20T10:07:40.111Z,100434.63
2022-09-20T10:10:26.622Z,100437.38
2022-09-20T10:13:18.940Z,100451.00
2022-09-20T10:16:41.509Z,100444.09
2022-09-20T10:19:27.631Z,100441.31
2022-09-20T10:22:18.514Z,100447.56
2022-09-20T10:25:36.900Z,100432.78
2022-09-20T10:28:29.644Z,100439.34
2022-09-20T10:31:25.515Z,100424.97
2022-09-20T10:34:12.154Z,100436.38
2022-09-20T10:36:58.432Z,100441.47
2022-09-20T10:39:33.968Z,100443.00
2022-09-20T10:42:50.110Z,100428.84
2022-09-20T10:45:55.969Z,100425.56
2022-09-20T10:48:31.740Z,100425.81
2022-09-20T10:51:31.359Z,100427.91
2022-09-20T10:54:04.544Z,100424.53
2022-09-20T10:56:41.418Z,100424.81
2022-09-20T10:59:24.944Z,100431.84
2022-09-20T11:02:10.809Z,100422.97
2022-09-20T11:05:17.056Z,100422.38
2022-09-20T11:07:54.529Z,100431.25
2022-09-20T11:10:29.072Z,100429.41
2022-09-20T11:13:02.299Z,100429.41
2022-09-20T11:16:09.097Z,100429.28
2022-09-20T11:19:13.993Z,100421.16
2022-09-20T11:21:50.883Z,100413.94
2022-09-20T11:24:31.640Z,100427.69
2022-09-20T11:27:11.052Z,100434.59
2022-09-20T11:29:53.721Z,100450.09
2022-09-20T11:32:29.872Z,100461.09
2022-09-20T11:35:21.530Z,100458.06
2022-09-20T11:38:25.730Z,100468.03
2022-09-20T11:41:03.102Z,100474.22
2022-09-20T11:43:32.870Z,100472.63
2022-09-20T11:46:05.787Z,100472.41
2022-09-20T11:48:39.612Z,100467.31
2022-09-20T11:51:17.116Z,100463.88
2022-09-20T11:53:54.194Z,100454.78
2022-09-20T11:56:25.043Z,100454.59
2022-09-20T11:58:59.945Z,100450.50
2022-09-20T12:01:29.698Z,100456.06
2022-09-20T12:04:27.885Z,100449.53
2022-09-20T12:07:08.943Z,100443.59
2022-09-20T12:09:42.958Z,100440.69
2022-09-20T12:12:32.764Z,100435.19
2022-09-20T12:15:02.873Z,100427.50
2022-09-20T12:17:49.726Z,100422.19
2022-09-20T12:20:32.817Z,100427.34
2022-09-20T12:23:38.643Z,100423.44
2022-09-20T12:26:11.091Z,100426.97
2022-09-20T12:28:42.086Z,100424.19
2022-09-20T12:31:19.011Z,100418.94
2022-09-20T12:34:10.979Z,100413.06
2022-09-20T12:36:43.237Z,100418.34
2022-09-20T12:39:19.066Z,100411.47
2022-09-20T12:42:09.641Z,100403.31
2022-09-20T12:44:49.712Z,100403.91
2022-09-20T12:47:17.190Z,100403.09
2022-09-20T12:50:06.162Z,100388.72
2022-09-20T12:53:03.641Z,100394.38
2022-09-20T12:56:01.955Z,100395.22
2022-09-20T12:58:45.214Z,100385.34
2022-09-20T13:01:14.481Z,100388.03
2022-09-20T13:03:50.028Z,100386.91
2022-09-20T13:06:20.761Z,100385.03
2022-09-20T13:09:00.272Z,100383.91
2022-09-20T13:11:38.487Z,100387.00
2022-09-20T13:14:08.983Z,100384.47
2022-09-20T13:16:37.274Z,100381.56
2022-09-20T13:19:15.450Z,100383.69
2022-09-20T13:22:01.150Z,100376.19
2022-09-20T13:24:37.742Z,100365.31
2022-09-20T13:27:09.470Z,100364.47
2022-09-20T13:29:42.450Z,100370.66
2022-09-20T13:32:30.198Z,100362.09
2022-09-20T13:35:10.069Z,100359.53
2022-09-20T13:37:43.054Z,100354.63
2022-09-20T13:40:18.542Z,100352.06
2022-09-20T13:42:48.693Z,100354.91
2022-09-20T13:45:18.440Z,100347.44
2022-09-20T13:47:52.483Z,100339.97
2022-09-20T13:50:33.091Z,100327.34
2022-09-20T13:53:03.473Z,100325.91
2022-09-20T13:55:34.444Z,100319.84
2022-09-20T13:58:09.163Z,100313.22
2022-09-20T14:00:44.964Z,100303.75
2022-09-20T14:03:16.963Z,100320.78
2022-09-20T14:05:48.079Z,100320.31
2022-09-20T14:08:32.511Z,100334.47
2022-09-20T14:11:23.438Z,100341.66
2022-09-20T14:13:59.768Z,100347.66
2022-09-20T14:16:39.626Z,100344.84
2022-09-20T14:19:08.527Z,100337.69
2022-09-20T14:21:38.346Z,100345.38
2022-09-20T14:24:28.920Z,100342.72
2022-09-20T14:27:16.356Z,100340.34
2022-09-20T14:29:52.523Z,100335.44
2022-09-20T14:32:20.783Z,100342.59
2022-09-20T14:35:00.489Z,100347.81
2022-09-20T14:37:27.943Z,100351.47
2022-09-20T14:40:02.505Z,100359.19
2022-09-20T14:42:50.919Z,100358.66
2022-09-20T14:45:33.412Z,100361.16
2022-09-20T14:48:10.721Z,100353.53
2022-09-20T14:50:44.955Z,100351.72
2022-09-20T14:53:12.733Z,100348.50
2022-09-20T14:55:57.650Z,100350.56
2022-09-20T14:58:26.918Z,100350.84
2022-09-20T15:00:59.182Z,100344.91
2022-09-20T15:03:32.576Z,100346.03
2022-09-20T15:06:00.519Z,100346.28
2022-09-20T15:08:28.405Z,100346.94
2022-09-20T15:10:56.179Z,100347.53
2022-09-20T15:13:23.805Z,100346.56
2022-09-20T15:15:53.714Z,100352.03
2022-09-20T15:18:25.379Z,100362.13
2022-09-20T15:20:54.892Z,100354.81
2022-09-20T15:23:22.755Z,100368.16
2022-09-20T15:25:51.500Z,100357.91
2022-09-20T15:28:19.431Z,100360.97
2022-09-20T15:30:50.400Z,100356.16
2022-09-20T15:33:20.602Z,100356.44
2022-09-20T15:35:49.204Z,100362.16
2022-09-20T15:38:18.979Z,100363.13
2022-09-20T15:40:48.093Z,100368.47
2022-09-20T15:43:18.423Z,100367.16
2022-09-20T15:45:50.364Z,100371.28
2022-09-20T15:48:22.966Z,100373.72
2022-09-20T15:51:05.968Z,100366.09
2022-09-20T15:53:39.907Z,100366.28
2022-09-20T15:56:21.183Z,100366.53
2022-09-20T15:58:51.471Z,100365.22
2022-09-20T16:01:19.950Z,100366.22
2022-09-20T16:03:47.539Z,100374.59
2022-09-20T16:06:15.382Z,100372.56
2022-09-20T16:08:43.837Z,100376.44
2022-09-20T16:11:19.234Z,100369.19
2022-09-20T16:13:54.783Z,100378.75
2022-09-20T16:16:23.033Z,100382.13
2022-09-20T16:19:09.264Z,100383.09
2022-09-20T16:21:42.192Z,100395.84
2022-09-20T16:24:12.615Z,100389.91
2022-09-20T16:26:41.225Z,100394.28
2022-09-20T16:29:09.615Z,100391.13
2022-09-20T16:31:43.910Z,100382.88
2022-09-20T16:34:37.935Z,100389.78
2022-09-20T16:37:17.084Z,100395.16
2022-09-20T16:39:45.011Z,100393.97
2022-09-20T16:42:13.527Z,100396.03
2022-09-20T16:44:43.070Z,100389.38
2022-09-20T16:47:13.987Z,100393.50
2022-09-20T16:49:41.478Z,100399.25
2022-09-20T16:52:11.188Z,100398.00
2022-09-20T16:54:39.028Z,100394.50
2022-09-20T16:57:06.738Z,100402.63
2022-09-20T16:59:34.963Z,100409.06
2022-09-20T17:02:02.458Z,100412.06
2022-09-20T17:04:30.938Z,100412.56
2022-09-20T17:06:58.975Z,100423.59
2022-09-20T17:09:28.337Z,100422.03
2022-09-20T17:11:55.953Z,100427.47
2022-09-20T17:14:25.146Z,100407.13
2022-09-20T17:16:52.775Z,100411.09
2022-09-20T17:19:21.327Z,100410.75
2022-09-20T17:21:51.083Z,100409.75
2022-09-20T17:24:21.002Z,100414.00
2022-09-20T17:26:49.060Z,100411.09
2022-09-20T17:29:18.956Z,100419.44
2022-09-20T17:31:54.569Z,100428.50
2022-09-20T17:34:24.688Z,100429.72
2022-09-20T17:36:54.227Z,100423.69
2022-09-20T17:39:21.703Z,100421.03
2022-09-20T17:41:50.352Z,100413.75
2022-09-20T17:44:18.119Z,100409.75
2022-09-20T17:46:49.664Z,100411.06
2022-09-20T17:49:20.071Z,100419.19
2022-09-20T17:51:51.570Z,100421.72
2022-09-20T17:54:20.294Z,100408.91
2022-09-20T17:56:50.440Z,100409.75
2022-09-20T17:59:19.769Z,100415.06
2022-09-20T18:01:50.010Z,100417.84
2022-09-20T18:04:18.338Z,100418.72
2022-09-20T18:06:48.020Z,100413.50
2022-09-20T18:09:16.811Z,100424.03
2022-09-20T18:11:49.118Z,100419.56
2022-09-20T18:14:20.494Z,100415.91
2022-09-20T18:16:51.229Z,100416.88
2022-09-20T18:19:19.167Z,100422.69
2022-09-20T18:21:47.331Z,100417.09
2022-09-20T18:24:15.640Z,100419.78
2022-09-20T18:26:44.644Z,100416.34
2022-09-20T18:29:16.741Z,100403.25
2022-09-20T18:31:52.200Z,100394.31
2022-09-20T18:34:25.461Z,100406.63
2022-09-20T18:36:55.652Z,100411.00
2022-09-20T18:39:26.226Z,100409.09
2022-09-20T18:41:55.158Z,100414.13
2022-09-20T18:44:23.432Z,100408.19
2022-09-20T18:46:53.092Z,100407.56
2022-09-20T18:49:21.730Z,100407.19
2022-09-20T18:51:50.074Z,100422.53
2022-09-20T18:54:19.037Z,100425.66
2022-09-20T18:56:50.672Z,100431.50
2022-09-20T18:59:24.357Z,100428.81
2022-09-20T19:01:55.225Z,100431.22
2022-09-20T19:04:46.883Z,100426.91
2022-09-20T19:07:27.256Z,100432.25
2022-09-20T19:10:13.869Z,100429.50
2022-09-20T19:12:56.008Z,100425.34
2022-09-20T19:15:42.578Z,100424.97
2022-09-20T19:18:59.043Z,100415.63
2022-09-20T19:21:29.403Z,100428.22
2022-09-20T19:24:20.702Z,100427.59
2022-09-20T19:26:49.026Z,100431.63
2022-09-20T19:29:21.404Z,100422.28
2022-09-20T19:31:51.855Z,100412.72
2022-09-20T19:34:23.020Z,100415.84
2022-09-20T19:37:02.390Z,100412.22
2022-09-20T19:39:30.197Z,100419.25
2022-09-20T19:42:20.432Z,100417.69
2022-09-20T19:44:48.300Z,100418.78
2022-09-20T19:47:36.826Z,100417.50
2022-09-20T19:50:16.193Z,100422.19
2022-09-20T19:52:44.717Z,100429.19
2022-09-20T19:55:13.605Z,100438.84
2022-09-20T19:57:47.171Z,100439.81
2022-09-20T20:00:17.380Z,100431.84
2022-09-20T20:02:45.862Z,100434.75
2022-09-20T20:05:16.380Z,100438.13
2022-09-20T20:08:19.867Z,100436.94
2022-09-20T20:10:56.736Z,100432.22
2022-09-20T20:14:07.194Z,100428.47
2022-09-20T20:17:05.306Z,100418.78
2022-09-20T20:19:52.766Z,100418.22
2022-09-20T20:22:47.309Z,100413.88
2022-09-20T20:25:26.562Z,100415.78
2022-09-20T20:27:54.244Z,100419.00
2022-09-20T20:30:21.732Z,100419.44
2022-09-20T20:32:51.106Z,100414.03
2022-09-20T20:35:19.350Z,100412.81
2022-09-20T20:37:47.525Z,100410.53
2022-09-20T20:40:15.410Z,100406.34
2022-09-20T20:42:43.596Z,100413.69
2022-09-20T20:45:11.827Z,100411.59
2022-09-20T20:47:42.763Z,100404.69
2022-09-20T20:50:12.783Z,100414.97
2022-09-20T20:52:41.166Z,100422.06
2022-09-20T20:55:08.949Z,100424.09
2022-09-20T20:57:38.048Z,100414.53
2022-09-20T21:00:06.291Z,100413.50
2022-09-20T21:02:34.958Z,100415.94
2022-09-20T21:05:02.564Z,100412.88
2022-09-20T21:07:33.519Z,100416.06
2022-09-20T21:10:01.775Z,100421.25
2022-09-20T21:12:29.347Z,100419.13
2022-09-20T21:14:56.951Z,100429.97
2022-09-20T21:17:26.659Z,100418.72
2022-09-20T21:19:54.171Z,100426.78
2022-09-20T21:22:21.599Z,100426.28
2022-09-20T21:24:49.301Z,100412.75
2022-09-20T21:27:16.746Z,100419.38
2022-09-20T21:29:44.210Z,100422.38
2022-09-20T21:32:12.208Z,100415.56
2022-09-20T21:34:39.711Z,100409.63
2022-09-20T21:37:07.367Z,100426.19
2022-09-20T21:39:34.967Z,100425.06
2022-09-20T21:42:03.820Z,100426.88
2022-09-20T21:44:32.527Z,100409.00
2022-09-20T21:47:00.168Z,100397.94
2022-09-20T21:49:27.623Z,100393.25
2022-09-20T21:51:55.360Z,100385.50
2022-09-20T21:54:24.257Z,100383.69
2022-09-20T21:56:55.768Z,100380.78
2022-09-20T21:59:23.370Z,100381.75
2022-09-20T22:01:50.985Z,100381.16
2022-09-20T22:04:18.644Z,100384.38
2022-09-20T22:06:46.395Z,100377.03
2022-09-20T22:09:17.219Z,100389.28
2022-09-20T22:11:49.041Z,100407.78
2022-09-20T22:14:19.790Z,100400.78
2022-09-20T22:16:48.780Z,100401.53
2022-09-20T22:19:18.780Z,100400.75
2022-09-20T22:21:48.527Z,100410.94
2022-09-20T22:24:16.657Z,100398.44
2022-09-20T22:26:46.693Z,100397.91
2022-09-20T22:29:15.243Z,100391.63
2022-09-20T22:31:45.723Z,100389.19
2022-09-20T22:34:16.915Z,100372.50
2022-09-20T22:36:45.133Z,100371.16
2022-09-20T22:39:13.648Z,100362.00
2022-09-20T22:41:42.926Z,100359.34
2022-09-20T22:44:11.421Z,100359.03
2022-09-20T22:46:40.435Z,100354.69
2022-09-20T22:49:09.524Z,100357.44
2022-09-20T22:51:37.726Z,100357.00
2022-09-20T22:54:10.812Z,100356.69
2022-09-20T22:56:42.388Z,100358.25
2022-09-20T22:59:13.233Z,100355.91
2022-09-20T23:01:44.265Z,100351.88
2022-09-20T23:04:15.150Z,100366.06
2022-09-20T23:06:49.182Z,100366.53
2022-09-20T23:09:18.637Z,100371.91
2022-09-20T23:11:46.799Z,100375.22
2022-09-20T23:14:19.531Z,100374.25
2022-09-20T23:16:48.265Z,100380.41
2022-09-20T23:19:16.749Z,100386.50
2022-09-20T23:21:44.699Z,100388.22
2022-09-20T23:24:14.462Z,100398.69
2022-09-20T23:26:43.686Z,100405.13
2022-09-20T23:29:13.844Z,100399.25
2022-09-20T23:31:45.793Z,100389.09
2022-09-20T23:34:15.594Z,100391.16
2022-09-20T23:36:44.498Z,100395.72
2022-09-20T23:39:12.713Z,100399.31
2022-09-20T23:41:41.477Z,100389.75
2022-09-20T23:44:10.375Z,100383.91
2022-09-20T23:46:39.054Z,100387.22
2022-09-20T23:49:07.195Z,100388.91
2022-09-20T23:51:35.706Z,100391.38
2022-09-20T23:54:03.943Z,100395.72
2022-09-20T23:56:32.115Z,100401.13
2022-09-20T23:58:59.720Z,100403.69
